Time;durP1;ratioP1;P1;durP2;ratioP2;P2;SDS_P1;SDS_P2;PMS_P1;PMS_P2;Temp;Humidity;BMP_temperature;BMP_pressure;BME280_temperature;BME280_humidity;BME280_pressure;Samples;Min_cycle;Max_cycle;Signal;HPM_P1;HPM_P2
2022/12/27 00:01:25;;;;;;;1.02;0.30;;;;;;;;;;5051461;28;20080;-87
2022/12/27 00:03:54;;;;;;;0.20;0.20;;;;;;;;;;5055607;28;20053;-87
2022/12/27 00:06:24;;;;;;;0.10;0.10;;;;;;;;;;5052780;28;20472;-89
2022/12/27 00:08:53;;;;;;;0.43;0.43;;;;;;;;;;5055688;28;20044;-86
2022/12/27 00:11:23;;;;;;;0.10;0.10;;;;;;;;;;5049957;28;20373;-87
2022/12/27 00:13:51;;;;;;;0.73;0.30;;;;;;;;;;5057392;28;20116;-87
2022/12/27 00:16:21;;;;;;;0.10;0.10;;;;;;;;;;5055297;28;20053;-88
2022/12/27 00:18:51;;;;;;;0.20;0.20;;;;;;;;;;5055714;28;20134;-88
2022/12/27 00:21:20;;;;;;;0.10;0.10;;;;;;;;;;5050924;28;20055;-86
2022/12/27 00:23:51;;;;;;;0.10;0.10;;;;;;;;;;5048599;28;20136;-89
2022/12/27 00:26:20;;;;;;;0.10;0.10;;;;;;;;;;5048979;28;20057;-87
2022/12/27 00:28:49;;;;;;;0.05;0.05;;;;;;;;;;5053742;28;20068;-88
2022/12/27 00:31:18;;;;;;;0.17;0.17;;;;;;;;;;5053629;28;20055;-87
2022/12/27 00:33:47;;;;;;;0.10;0.10;;;;;;;;;;5051489;28;20049;-87
2022/12/27 00:36:17;;;;;;;0.10;0.10;;;;;;;;;;5051443;28;20076;-89
2022/12/27 00:38:45;;;;;;;0.10;0.10;;;;;;;;;;5054307;28;20055;-89
2022/12/27 00:41:16;;;;;;;0.15;0.15;;;;;;;;;;5053953;28;20080;-86
2022/12/27 00:43:44;;;;;;;4.07;0.35;;;;;;;;;;5054346;28;20091;-86
2022/12/27 00:46:13;;;;;;;0.10;0.10;;;;;;;;;;5053594;28;20049;-87
2022/12/27 00:48:41;;;;;;;0.15;0.15;;;;;;;;;;5052088;28;20552;-85
2022/12/27 00:51:13;;;;;;;0.10;0.10;;;;;;;;;;5052873;28;20103;-89
2022/12/27 00:53:41;;;;;;;0.10;0.10;;;;;;;;;;5049967;28;20355;-86
2022/12/27 00:56:10;;;;;;;0.20;0.20;;;;;;;;;;5052899;28;20803;-88
2022/12/27 00:58:40;;;;;;;0.10;0.10;;;;;;;;;;5047004;28;20056;-87
2022/12/27 01:01:09;;;;;;;0.10;0.10;;;;;;;;;;5049749;28;20056;-86
2022/12/27 01:03:38;;;;;;;0.10;0.10;;;;;;;;;;5054874;28;20485;-84
2022/12/27 01:06:07;;;;;;;0.38;0.38;;;;;;;;;;5051444;28;20061;-89
2022/12/27 01:08:36;;;;;;;0.08;0.08;;;;;;;;;;5052057;28;20485;-87
2022/12/27 01:11:05;;;;;;;0.10;0.10;;;;;;;;;;5050393;28;20125;-88
2022/12/27 01:13:34;;;;;;;0.57;0.30;;;;;;;;;;5052731;28;20051;-87
2022/12/27 01:16:09;;;;;;;0.15;0.15;;;;;;;;;;5052986;28;20129;-86
2022/12/27 01:18:37;;;;;;;;;;;;;;;;;;5053255;28;20067;-87
2022/12/27 01:21:06;;;;;;;0.20;0.20;;;;;;;;;;5051988;28;19927;-86
2022/12/27 01:23:35;;;;;;;0.10;0.10;;;;;;;;;;5055184;28;20127;-85
2022/12/27 01:26:04;;;;;;;0.50;0.10;;;;;;;;;;5051574;28;20139;-85
2022/12/27 01:28:33;;;;;;;0.10;0.10;;;;;;;;;;5050360;28;20059;-86
2022/12/27 01:31:06;;;;;;;0.10;0.10;;;;;;;;;;5054408;28;20045;-86
2022/12/27 01:33:35;;;;;;;0.25;0.20;;;;;;;;;;5042057;28;20051;-86
2022/12/27 01:36:11;;;;;;;0.10;0.10;;;;;;;;;;5053074;28;20132;-85
2022/12/27 01:38:42;;;;;;;0.88;0.15;;;;;;;;;;5047716;28;20465;-85
2022/12/27 01:43:59;;;;;;;2.50;0.55;;;;;;;;;;5053659;28;20048;-85
2022/12/27 01:46:30;;;;;;;1.35;0.43;;;;;;;;;;5050795;28;20404;-86
2022/12/27 01:48:58;;;;;;;0.20;0.20;;;;;;;;;;5050452;28;20067;-85
2022/12/27 01:51:26;;;;;;;0.30;0.30;;;;;;;;;;5053650;28;20048;-85
2022/12/27 01:53:55;;;;;;;0.35;0.35;;;;;;;;;;5053509;28;20087;-86
2022/12/27 01:56:26;;;;;;;0.10;0.10;;;;;;;;;;5052658;28;20090;-85
2022/12/27 01:58:57;;;;;;;0.75;0.43;;;;;;;;;;5048219;28;20061;-86
2022/12/27 02:01:27;;;;;;;0.20;0.20;;;;;;;;;;5050698;28;20140;-86
2022/12/27 02:03:59;;;;;;;0.38;0.20;;;;;;;;;;5052800;28;20448;-87
2022/12/27 02:06:28;;;;;;;0.10;0.10;;;;;;;;;;5054373;28;20049;-86
2022/12/27 02:08:58;;;;;;;0.28;0.28;;;;;;;;;;5051096;28;20136;-87
2022/12/27 02:14:11;;;;;;;0.38;0.38;;;;;;;;;;5049249;28;20132;-86
2022/12/27 02:16:40;;;;;;;17.33;0.38;;;;;;;;;;5053692;28;20136;-86
2022/12/27 02:19:13;;;;;;;2.85;0.20;;;;;;;;;;5049213;28;20044;-86
2022/12/27 02:21:56;;;;;;;0.17;0.17;;;;;;;;;;5052331;28;20541;-86
2022/12/27 02:24:38;;;;;;;1.17;0.40;;;;;;;;;;5054026;28;20050;-86
2022/12/27 02:27:08;;;;;;;0.13;0.13;;;;;;;;;;5047803;28;20049;-87
2022/12/27 02:29:43;;;;;;;0.20;0.20;;;;;;;;;;5050856;28;20147;-86
2022/12/27 02:32:14;;;;;;;0.20;0.20;;;;;;;;;;5049129;28;20084;-87
2022/12/27 02:34:47;;;;;;;0.10;0.10;;;;;;;;;;5050008;28;20496;-89
2022/12/27 02:37:16;;;;;;;0.10;0.10;;;;;;;;;;5050022;28;20111;-87
2022/12/27 02:39:47;;;;;;;0.20;0.20;;;;;;;;;;5052990;28;20569;-87
2022/12/27 02:53:34;;;;;;;0.25;0.25;;;;;;;;;;5049115;28;20049;-88
2022/12/27 02:59:08;;;;;;;0.35;0.32;;;;;;;;;;5051413;28;20505;-88
2022/12/27 03:04:39;;;;;;;0.10;0.10;;;;;;;;;;5049967;28;20127;-87
2022/12/27 03:07:18;;;;;;;0.30;0.30;;;;;;;;;;5056547;28;20045;-88
2022/12/27 03:15:55;;;;;;;2.33;0.52;;;;;;;;;;5057166;28;20124;-86
2022/12/27 03:18:31;;;;;;;0.10;0.10;;;;;;;;;;5053394;28;20289;-89
2022/12/27 03:26:35;;;;;;;0.20;0.20;;;;;;;;;;5055056;28;20095;-86
2022/12/27 03:34:43;;;;;;;0.85;0.20;;;;;;;;;;5053094;28;20120;-88
2022/12/27 03:40:04;;;;;;;0.63;0.38;;;;;;;;;;5054632;28;20084;-88
2022/12/27 03:46:32;;;;;;;0.20;0.20;;;;;;;;;;5052215;28;20103;-88
2022/12/27 03:48:10;;;;;;;0.30;0.30;;;;;;;;;;5053380;28;20084;-88
2022/12/27 03:50:44;;;;;;;0.80;0.35;;;;;;;;;;5052739;28;20048;-87
2022/12/27 03:53:16;;;;;;;0.10;0.10;;;;;;;;;;5054398;28;20052;-87
2022/12/27 03:55:45;;;;;;;0.65;0.25;;;;;;;;;;5053248;28;20061;-88
2022/12/27 03:58:13;;;;;;;0.38;0.30;;;;;;;;;;5049634;28;20132;-88
2022/12/27 04:00:42;;;;;;;0.10;0.10;;;;;;;;;;5044064;28;20076;-87
2022/12/27 04:03:10;;;;;;;0.73;0.38;;;;;;;;;;5054892;28;20045;-87
2022/12/27 04:05:38;;;;;;;0.20;0.20;;;;;;;;;;5055780;28;20090;-88
2022/12/27 04:35:50;;;;;;;0.17;0.17;;;;;;;;;;5042395;28;20080;-87
2022/12/27 04:38:18;;;;;;;0.40;0.40;;;;;;;;;;5051539;28;20104;-85
2022/12/27 04:54:57;;;;;;;0.20;0.20;;;;;;;;;;5050420;28;20486;-87
2022/12/27 04:57:28;;;;;;;0.28;0.28;;;;;;;;;;5054971;28;20079;-87
2022/12/27 05:02:54;;;;;;;0.10;0.10;;;;;;;;;;4999557;28;20049;-87
2022/12/27 05:05:23;;;;;;;0.25;0.25;;;;;;;;;;5042573;28;20055;-87
2022/12/27 05:16:12;;;;;;;0.10;0.10;;;;;;;;;;5051466;28;20049;-86
2022/12/27 05:18:41;;;;;;;0.20;0.20;;;;;;;;;;5051935;28;20049;-87
2022/12/27 05:21:09;;;;;;;0.10;0.10;;;;;;;;;;5050943;28;20052;-88
2022/12/27 05:26:33;;;;;;;0.20;0.20;;;;;;;;;;5049616;28;20480;-88
2022/12/27 05:29:02;;;;;;;0.10;0.10;;;;;;;;;;5054654;28;20127;-87
2022/12/27 05:31:31;;;;;;;0.38;0.38;;;;;;;;;;5053912;28;20515;-86
2022/12/27 05:34:00;;;;;;;0.20;0.20;;;;;;;;;;5053305;28;20060;-87
2022/12/27 05:36:29;;;;;;;0.30;0.30;;;;;;;;;;5049078;28;20053;-88
2022/12/27 05:38:58;;;;;;;0.10;0.10;;;;;;;;;;5054647;28;20083;-86
2022/12/27 05:41:27;;;;;;;0.52;0.43;;;;;;;;;;5053826;28;20083;-85
2022/12/27 05:43:55;;;;;;;0.30;0.30;;;;;;;;;;5064837;28;20118;-86
2022/12/27 05:46:28;;;;;;;2.65;0.70;;;;;;;;;;5054293;28;20505;-86
2022/12/27 05:48:56;;;;;;;0.25;0.25;;;;;;;;;;5055190;28;20377;-88
2022/12/27 05:51:25;;;;;;;0.43;0.43;;;;;;;;;;5048444;28;20551;-87
2022/12/27 05:53:53;;;;;;;0.20;0.20;;;;;;;;;;5053030;28;20091;-87
2022/12/27 05:56:22;;;;;;;0.30;0.30;;;;;;;;;;5052890;28;20139;-86
2022/12/27 05:58:53;;;;;;;0.45;0.45;;;;;;;;;;5054374;28;20058;-86
2022/12/27 06:01:21;;;;;;;0.45;0.45;;;;;;;;;;5050831;28;20068;-87
2022/12/27 06:03:52;;;;;;;0.10;0.10;;;;;;;;;;5053336;28;20091;-88
2022/12/27 06:06:20;;;;;;;0.17;0.17;;;;;;;;;;5051167;28;20045;-87
2022/12/27 06:08:49;;;;;;;0.20;0.20;;;;;;;;;;5053833;28;20072;-87
2022/12/27 06:11:18;;;;;;;1.75;0.65;;;;;;;;;;5053815;28;20088;-87
2022/12/27 06:13:49;;;;;;;0.10;0.10;;;;;;;;;;5053478;28;20080;-88
2022/12/27 06:16:17;;;;;;;0.20;0.20;;;;;;;;;;5050518;28;20460;-87
2022/12/27 06:18:46;;;;;;;0.10;0.10;;;;;;;;;;5053644;28;20053;-87
2022/12/27 06:21:16;;;;;;;0.20;0.20;;;;;;;;;;5047855;28;20063;-87
2022/12/27 06:23:45;;;;;;;0.20;0.20;;;;;;;;;;5051800;28;20091;-87
2022/12/27 06:26:15;;;;;;;0.20;0.20;;;;;;;;;;5043289;28;20516;-89
2022/12/27 06:28:43;;;;;;;0.17;0.17;;;;;;;;;;5050222;28;20045;-89
2022/12/27 06:31:12;;;;;;;1.35;0.60;;;;;;;;;;5056376;28;20063;-88
2022/12/27 06:33:40;;;;;;;0.22;0.13;;;;;;;;;;5051430;28;20127;-88
2022/12/27 06:36:10;;;;;;;0.20;0.20;;;;;;;;;;5053500;28;20049;-89
2022/12/27 06:38:40;;;;;;;0.22;0.22;;;;;;;;;;5057699;28;20136;-89
2022/12/27 06:41:09;;;;;;;0.20;0.20;;;;;;;;;;5064585;28;20116;-88
2022/12/27 06:43:37;;;;;;;0.75;0.45;;;;;;;;;;5046366;28;20138;-90
2022/12/27 06:46:07;;;;;;;0.20;0.20;;;;;;;;;;5056183;28;20132;-89
2022/12/27 06:48:42;;;;;;;0.20;0.20;;;;;;;;;;5053293;28;20045;-88
2022/12/27 06:51:12;;;;;;;0.20;0.20;;;;;;;;;;5055998;28;20048;-91
2022/12/27 06:53:41;;;;;;;0.20;0.20;;;;;;;;;;5052415;28;20049;-88
2022/12/27 06:56:11;;;;;;;0.20;0.20;;;;;;;;;;5055427;28;20056;-88
2022/12/27 06:58:39;;;;;;;0.10;0.10;;;;;;;;;;5046663;28;20049;-87
2022/12/27 07:01:08;;;;;;;0.20;0.20;;;;;;;;;;5055470;28;20040;-88
2022/12/27 07:03:37;;;;;;;0.22;0.22;;;;;;;;;;5060663;28;20057;-87
2022/12/27 07:06:07;;;;;;;1.23;0.40;;;;;;;;;;5055754;28;20063;-88
2022/12/27 07:08:36;;;;;;;0.15;0.15;;;;;;;;;;5055588;28;20081;-87
2022/12/27 07:11:06;;;;;;;0.10;0.10;;;;;;;;;;5057538;28;20053;-88
2022/12/27 07:13:35;;;;;;;0.20;0.20;;;;;;;;;;5054661;28;20064;-88
2022/12/27 07:16:04;;;;;;;0.25;0.25;;;;;;;;;;5054931;28;20045;-87
2022/12/27 07:18:33;;;;;;;0.10;0.10;;;;;;;;;;5055546;28;20056;-87
2022/12/27 07:21:05;;;;;;;2.85;1.13;;;;;;;;;;5052945;28;20362;-88
2022/12/27 07:23:33;;;;;;;0.20;0.20;;;;;;;;;;5050276;28;20421;-88
2022/12/27 07:26:03;;;;;;;0.40;0.40;;;;;;;;;;5048509;28;20117;-88
2022/12/27 07:28:33;;;;;;;0.10;0.10;;;;;;;;;;5053957;28;20123;-87
2022/12/27 07:31:06;;;;;;;1.02;0.40;;;;;;;;;;5054979;28;20064;-88
2022/12/27 07:33:35;;;;;;;0.10;0.10;;;;;;;;;;5056236;28;20051;-88
2022/12/27 07:36:04;;;;;;;0.10;0.10;;;;;;;;;;5047926;28;20137;-88
2022/12/27 07:38:32;;;;;;;0.10;0.10;;;;;;;;;;5049840;28;20053;-86
2022/12/27 07:41:01;;;;;;;0.17;0.17;;;;;;;;;;5055071;28;20185;-87
2022/12/27 07:43:30;;;;;;;0.10;0.10;;;;;;;;;;5062861;28;20052;-87
2022/12/27 07:46:04;;;;;;;0.65;0.20;;;;;;;;;;5053139;28;20059;-84
2022/12/27 07:48:33;;;;;;;4.80;0.32;;;;;;;;;;5051872;28;20068;-88
2022/12/27 07:51:01;;;;;;;0.20;0.20;;;;;;;;;;5050879;28;20044;-85
2022/12/27 07:53:30;;;;;;;0.20;0.20;;;;;;;;;;5052074;28;20060;-86
2022/12/27 07:55:59;;;;;;;0.10;0.10;;;;;;;;;;5054474;28;20049;-87
2022/12/27 07:58:27;;;;;;;2.05;0.65;;;;;;;;;;5064164;28;20072;-86
2022/12/27 08:00:56;;;;;;;0.10;0.10;;;;;;;;;;5052946;28;20057;-87
2022/12/27 08:03:25;;;;;;;0.20;0.20;;;;;;;;;;5048382;28;20071;-86
2022/12/27 08:05:54;;;;;;;0.20;0.20;;;;;;;;;;5049065;28;20051;-86
2022/12/27 08:08:24;;;;;;;0.52;0.30;;;;;;;;;;5056047;28;20132;-87
2022/12/27 08:10:52;;;;;;;0.20;0.20;;;;;;;;;;5054943;28;20389;-87
2022/12/27 08:13:21;;;;;;;0.22;0.22;;;;;;;;;;5063473;28;20544;-86
2022/12/27 08:15:52;;;;;;;0.47;0.47;;;;;;;;;;5051429;28;20440;-87
2022/12/27 08:18:21;;;;;;;0.20;0.20;;;;;;;;;;5057410;28;20061;-88
2022/12/27 08:20:51;;;;;;;0.13;0.13;;;;;;;;;;5049667;28;20110;-87
2022/12/27 08:23:19;;;;;;;0.10;0.10;;;;;;;;;;5057656;28;20444;-85
2022/12/27 08:25:48;;;;;;;0.10;0.10;;;;;;;;;;5050537;28;20037;-85
2022/12/27 08:28:17;;;;;;;0.17;0.17;;;;;;;;;;5058216;28;20041;-86
2022/12/27 08:30:46;;;;;;;0.43;0.38;;;;;;;;;;5056423;28;20127;-85
2022/12/27 08:33:15;;;;;;;0.20;0.20;;;;;;;;;;5055984;28;20091;-86
2022/12/27 08:35:45;;;;;;;0.20;0.20;;;;;;;;;;5058365;28;20045;-86
2022/12/27 08:38:23;;;;;;;0.20;0.20;;;;;;;;;;5063906;28;20045;-86
2022/12/27 08:40:53;;;;;;;0.80;0.20;;;;;;;;;;5060925;28;20048;-86
2022/12/27 08:43:21;;;;;;;0.10;0.10;;;;;;;;;;5064026;28;20140;-85
2022/12/27 08:45:55;;;;;;;0.47;0.47;;;;;;;;;;5057731;28;20096;-87
2022/12/27 08:48:24;;;;;;;5.68;0.60;;;;;;;;;;5055686;28;20075;-86
2022/12/27 08:50:52;;;;;;;0.25;0.25;;;;;;;;;;5056041;28;20060;-89
2022/12/27 08:53:21;;;;;;;1.45;0.32;;;;;;;;;;5052590;28;20057;-87
2022/12/27 08:55:51;;;;;;;0.30;0.30;;;;;;;;;;5048973;28;20051;-87
2022/12/27 08:58:20;;;;;;;0.20;0.20;;;;;;;;;;5056410;28;20052;-93
2022/12/27 09:00:49;;;;;;;0.30;0.30;;;;;;;;;;5059574;28;20454;-88
2022/12/27 09:03:18;;;;;;;0.43;0.40;;;;;;;;;;5055498;28;20041;-89
2022/12/27 09:05:48;;;;;;;0.30;0.30;;;;;;;;;;5056238;28;20103;-90
2022/12/27 09:08:17;;;;;;;0.47;0.47;;;;;;;;;;5055490;28;20063;-91
2022/12/27 09:10:46;;;;;;;0.60;0.57;;;;;;;;;;5056830;28;20124;-85
2022/12/27 09:13:16;;;;;;;0.20;0.20;;;;;;;;;;5051906;28;20136;-87
2022/12/27 09:15:45;;;;;;;0.30;0.30;;;;;;;;;;5046427;28;20056;-88
2022/12/27 09:18:13;;;;;;;0.17;0.10;;;;;;;;;;5059447;28;20079;-86
2022/12/27 09:20:42;;;;;;;0.45;0.45;;;;;;;;;;5044474;28;20484;-86
2022/12/27 09:23:10;;;;;;;1.80;1.05;;;;;;;;;;5051929;28;20053;-86
2022/12/27 09:25:39;;;;;;;0.32;0.32;;;;;;;;;;5047968;28;20315;-86
2022/12/27 09:28:09;;;;;;;1.08;0.73;;;;;;;;;;5049825;28;20462;-86
2022/12/27 09:30:38;;;;;;;0.40;0.40;;;;;;;;;;5053859;28;20436;-86
2022/12/27 09:33:08;;;;;;;0.82;0.50;;;;;;;;;;5050233;28;20094;-86
2022/12/27 09:35:36;;;;;;;1.33;0.70;;;;;;;;;;5051586;28;20057;-87
2022/12/27 09:38:06;;;;;;;0.20;0.20;;;;;;;;;;5049785;28;20049;-87
2022/12/27 09:40:35;;;;;;;0.10;0.10;;;;;;;;;;5046530;28;20052;-86
2022/12/27 09:43:06;;;;;;;0.50;0.50;;;;;;;;;;5054115;28;20063;-86
2022/12/27 09:45:53;;;;;;;0.22;0.22;;;;;;;;;;5062905;28;20102;-86
2022/12/27 09:48:27;;;;;;;0.40;0.40;;;;;;;;;;5048252;28;20064;-91
2022/12/27 09:51:02;;;;;;;0.32;0.32;;;;;;;;;;5056160;28;20052;-93
2022/12/27 09:53:39;;;;;;;0.60;0.50;;;;;;;;;;5058775;28;20067;-89
2022/12/27 09:56:09;;;;;;;0.20;0.20;;;;;;;;;;5057734;28;20469;-88
2022/12/27 09:58:41;;;;;;;0.43;0.40;;;;;;;;;;5050019;28;20041;-93
2022/12/27 10:01:19;;;;;;;0.20;0.20;;;;;;;;;;5057618;28;20048;-92
2022/12/27 10:03:48;;;;;;;0.10;0.10;;;;;;;;;;5053781;28;20080;-87
2022/12/27 10:06:24;;;;;;;0.65;0.50;;;;;;;;;;5059198;28;20416;-91
2022/12/27 10:08:54;;;;;;;0.20;0.20;;;;;;;;;;5056409;28;20052;-91
2022/12/27 10:11:38;;;;;;;0.30;0.30;;;;;;;;;;5059579;28;20072;-93
2022/12/27 10:14:16;;;;;;;0.25;0.22;;;;;;;;;;5054868;28;20143;-92
2022/12/27 10:16:51;;;;;;;0.30;0.20;;;;;;;;;;5062818;28;20084;-93
2022/12/27 10:19:24;;;;;;;0.10;0.10;;;;;;;;;;5055674;28;20445;-95
2022/12/27 10:21:59;;;;;;;0.43;0.43;;;;;;;;;;5066725;28;20057;-88
2022/12/27 10:24:34;;;;;;;0.10;0.10;;;;;;;;;;5064875;28;20136;-88
2022/12/27 10:27:02;;;;;;;;;;;;;;;;;;5053559;28;20059;-93
2022/12/27 10:29:32;;;;;;;0.30;0.30;;;;;;;;;;5052142;28;19992;-90
2022/12/27 10:32:03;;;;;;;1.92;0.38;;;;;;;;;;5058300;28;20080;-85
2022/12/27 10:34:31;;;;;;;0.10;0.10;;;;;;;;;;5058757;28;20105;-93
2022/12/27 10:37:00;;;;;;;0.85;0.50;;;;;;;;;;5053126;28;20102;-89
2022/12/27 10:39:31;;;;;;;0.68;0.47;;;;;;;;;;5059918;28;20041;-88
2022/12/27 10:42:03;;;;;;;0.20;0.20;;;;;;;;;;5065286;28;20533;-86
2022/12/27 10:44:32;;;;;;;0.20;0.20;;;;;;;;;;5056421;28;20052;-86
2022/12/27 10:47:00;;;;;;;0.17;0.17;;;;;;;;;;5056303;28;20128;-94
2022/12/27 10:49:31;;;;;;;0.75;0.43;;;;;;;;;;5056064;28;20570;-88
2022/12/27 10:52:07;;;;;;;1.02;0.30;;;;;;;;;;5063844;28;20120;-89
2022/12/27 10:54:36;;;;;;;0.17;0.17;;;;;;;;;;5059737;28;20047;-90
2022/12/27 10:57:17;;;;;;;0.30;0.30;;;;;;;;;;5065299;28;20065;-89
2022/12/27 10:59:45;;;;;;;0.20;0.20;;;;;;;;;;5061730;28;20067;-88
2022/12/27 11:02:17;;;;;;;0.10;0.10;;;;;;;;;;5060643;28;20352;-89
2022/12/27 11:05:00;;;;;;;0.10;0.10;;;;;;;;;;5073321;28;20396;-88
2022/12/27 11:07:30;;;;;;;0.20;0.20;;;;;;;;;;5067312;28;20067;-89
2022/12/27 11:10:06;;;;;;;0.13;0.13;;;;;;;;;;5060077;28;20063;-93
2022/12/27 11:16:12;;;;;;;0.15;0.15;;;;;;;;;;5048035;28;20035;-89
2022/12/27 11:18:48;;;;;;;0.10;0.10;;;;;;;;;;5052691;28;20053;-91
2022/12/27 11:21:18;;;;;;;2.72;0.20;;;;;;;;;;5051079;28;20424;-88
2022/12/27 11:23:57;;;;;;;0.25;0.25;;;;;;;;;;5051665;28;20059;-91
2022/12/27 11:26:28;;;;;;;3.95;0.38;;;;;;;;;;5051524;28;20493;-87
2022/12/27 11:28:57;;;;;;;0.10;0.10;;;;;;;;;;5054452;28;20128;-91
2022/12/27 11:31:30;;;;;;;0.20;0.20;;;;;;;;;;5056233;28;20148;-88
2022/12/27 11:34:00;;;;;;;0.20;0.20;;;;;;;;;;5057184;28;20040;-89
2022/12/27 11:36:32;;;;;;;0.15;0.15;;;;;;;;;;5051377;28;20057;-85
2022/12/27 11:39:01;;;;;;;0.30;0.30;;;;;;;;;;5051442;28;20508;-88
2022/12/27 11:41:37;;;;;;;0.25;0.25;;;;;;;;;;5059548;28;20119;-92
2022/12/27 11:44:10;;;;;;;0.13;0.13;;;;;;;;;;5053483;28;20053;-91
2022/12/27 11:46:41;;;;;;;0.15;0.15;;;;;;;;;;5050671;28;20045;-89
2022/12/27 11:49:18;;;;;;;0.30;0.30;;;;;;;;;;5043630;28;20092;-88
2022/12/27 11:52:07;;;;;;;0.40;0.40;;;;;;;;;;5054802;28;20049;-87
2022/12/27 11:54:54;;;;;;;0.10;0.10;;;;;;;;;;5005269;28;20060;-85
2022/12/27 11:57:30;;;;;;;0.20;0.20;;;;;;;;;;5026220;28;20159;-88
2022/12/27 12:00:04;;;;;;;0.30;0.20;;;;;;;;;;5031228;28;20541;-89
2022/12/27 12:02:36;;;;;;;12.23;0.45;;;;;;;;;;5032807;28;20411;-89
2022/12/27 12:05:23;;;;;;;0.20;0.20;;;;;;;;;;5023129;28;20057;-88
2022/12/27 12:07:59;;;;;;;0.10;0.10;;;;;;;;;;5020201;28;20049;-91
2022/12/27 12:10:34;;;;;;;1.35;0.25;;;;;;;;;;4970861;28;20050;-89
2022/12/27 12:13:10;;;;;;;0.57;0.25;;;;;;;;;;4962802;28;20058;-87
2022/12/27 12:15:57;;;;;;;0.20;0.17;;;;;;;;;;4966212;28;20559;-87
2022/12/27 12:18:36;;;;;;;0.15;0.15;;;;;;;;;;4963503;28;20051;-87
2022/12/27 12:21:26;;;;;;;0.10;0.10;;;;;;;;;;4967856;28;20526;-88
2022/12/27 12:24:02;;;;;;;0.20;0.20;;;;;;;;;;4973779;28;20055;-90
2022/12/27 12:26:35;;;;;;;0.20;0.20;;;;;;;;;;4968604;28;20043;-87
2022/12/27 12:29:31;;;;;;;0.20;0.20;;;;;;;;;;4968435;28;20572;-89
2022/12/27 12:32:07;;;;;;;0.28;0.28;;;;;;;;;;4925456;28;20073;-87
2022/12/27 12:34:43;;;;;;;0.40;0.40;;;;;;;;;;4975130;28;20061;-87
2022/12/27 12:37:18;;;;;;;0.20;0.20;;;;;;;;;;4977777;28;20074;-89
2022/12/27 12:39:46;;;;;;;;;;;;;;;;;;4968800;28;20046;-87
2022/12/27 12:42:19;;;;;;;0.30;0.30;;;;;;;;;;5011132;28;19936;-88
2022/12/27 12:44:52;;;;;;;0.65;0.20;;;;;;;;;;5027150;28;20058;-89
2022/12/27 12:47:35;;;;;;;0.10;0.10;;;;;;;;;;5021677;28;20100;-87
2022/12/27 12:50:15;;;;;;;0.63;0.15;;;;;;;;;;5026347;28;20096;-88
2022/12/27 12:52:53;;;;;;;0.40;0.20;;;;;;;;;;5028218;28;20137;-88
2022/12/27 12:55:29;;;;;;;0.20;0.20;;;;;;;;;;5030332;28;20216;-86
2022/12/27 12:58:15;;;;;;;0.10;0.10;;;;;;;;;;5044745;28;20057;-87
2022/12/27 13:00:48;;;;;;;0.30;0.20;;;;;;;;;;5050619;28;20103;-87
2022/12/27 13:03:44;;;;;;;0.10;0.10;;;;;;;;;;5048579;28;20386;-87
2022/12/27 13:06:22;;;;;;;0.73;0.20;;;;;;;;;;5047664;28;20057;-90
2022/12/27 13:08:56;;;;;;;1.58;0.35;;;;;;;;;;5050236;28;20049;-88
2022/12/27 13:11:38;;;;;;;0.88;0.30;;;;;;;;;;5046767;28;20468;-88
2022/12/27 13:14:17;;;;;;;0.10;0.10;;;;;;;;;;5044320;28;20147;-90
2022/12/27 13:16:51;;;;;;;0.28;0.28;;;;;;;;;;5049947;28;20041;-88
2022/12/27 13:19:28;;;;;;;0.30;0.30;;;;;;;;;;5043976;28;20044;-87
2022/12/27 13:22:06;;;;;;;0.90;0.20;;;;;;;;;;5048476;28;20470;-89
2022/12/27 13:24:43;;;;;;;0.10;0.10;;;;;;;;;;5041446;28;20050;-88
2022/12/27 13:27:19;;;;;;;0.10;0.10;;;;;;;;;;5044472;28;20055;-87
2022/12/27 13:29:53;;;;;;;0.20;0.20;;;;;;;;;;5038238;28;20062;-88
2022/12/27 13:32:28;;;;;;;0.85;0.50;;;;;;;;;;5048585;28;20052;-90
2022/12/27 13:35:04;;;;;;;2.90;0.40;;;;;;;;;;5042649;28;20137;-96
2022/12/27 13:37:40;;;;;;;0.20;0.20;;;;;;;;;;5050636;28;20083;-92
2022/12/27 13:40:26;;;;;;;0.10;0.10;;;;;;;;;;5049842;28;20053;-89
2022/12/27 13:43:06;;;;;;;3.00;0.28;;;;;;;;;;5037957;28;20496;-84
2022/12/27 13:45:45;;;;;;;0.57;0.40;;;;;;;;;;5041151;28;20112;-88
2022/12/27 13:48:21;;;;;;;0.38;0.38;;;;;;;;;;5045460;28;20053;-89
2022/12/27 13:50:55;;;;;;;0.20;0.20;;;;;;;;;;5040761;28;20102;-90
2022/12/27 13:53:33;;;;;;;1.95;0.30;;;;;;;;;;5052328;28;20067;-88
2022/12/27 13:56:06;;;;;;;0.20;0.20;;;;;;;;;;5039741;28;20056;-88
2022/12/27 13:59:10;;;;;;;0.20;0.20;;;;;;;;;;5044257;28;20049;-88
2022/12/27 14:02:00;;;;;;;0.30;0.20;;;;;;;;;;5049115;28;20052;-88
2022/12/27 14:04:42;;;;;;;0.20;0.20;;;;;;;;;;5046502;28;20041;-88
2022/12/27 14:07:27;;;;;;;0.10;0.10;;;;;;;;;;5042203;28;20057;-87
2022/12/27 14:10:03;;;;;;;0.30;0.30;;;;;;;;;;5048547;28;20052;-88
2022/12/27 14:12:42;;;;;;;0.25;0.22;;;;;;;;;;5043127;28;20045;-86
2022/12/27 14:15:14;;;;;;;0.32;0.10;;;;;;;;;;5049033;28;20049;-88
2022/12/27 14:17:47;;;;;;;0.65;0.52;;;;;;;;;;5049392;28;20080;-90
2022/12/27 14:20:30;;;;;;;0.40;0.40;;;;;;;;;;5036570;28;20060;-87
2022/12/27 14:23:08;;;;;;;0.40;0.40;;;;;;;;;;5048035;28;20152;-84
2022/12/27 14:25:57;;;;;;;0.20;0.20;;;;;;;;;;5048817;28;20049;-89
2022/12/27 14:28:46;;;;;;;0.47;0.47;;;;;;;;;;5040590;28;20065;-86
2022/12/27 14:31:27;;;;;;;0.20;0.20;;;;;;;;;;5044109;28;20072;-87
2022/12/27 14:34:09;;;;;;;0.45;0.45;;;;;;;;;;5045474;28;20061;-87
2022/12/27 14:36:51;;;;;;;0.10;0.10;;;;;;;;;;5043508;28;20123;-87
2022/12/27 14:39:31;;;;;;;0.10;0.10;;;;;;;;;;5045109;28;20045;-87
2022/12/27 14:42:11;;;;;;;0.45;0.20;;;;;;;;;;5039357;28;20083;-88
2022/12/27 14:45:13;;;;;;;0.73;0.73;;;;;;;;;;5040555;28;20084;-89
2022/12/27 14:48:00;;;;;;;0.38;0.32;;;;;;;;;;4962934;28;20322;-89
2022/12/27 14:50:50;;;;;;;0.95;0.60;;;;;;;;;;5025211;28;20155;-93
2022/12/27 14:53:46;;;;;;;0.17;0.17;;;;;;;;;;5044212;28;20081;-88
2022/12/27 14:56:19;;;;;;;0.25;0.25;;;;;;;;;;5055365;28;20128;-88
2022/12/27 14:58:55;;;;;;;0.17;0.17;;;;;;;;;;5053896;28;20045;-89
2022/12/27 15:01:37;;;;;;;0.20;0.20;;;;;;;;;;5051852;28;20064;-89
2022/12/27 15:04:12;;;;;;;4.28;0.30;;;;;;;;;;5052515;28;20099;-90
2022/12/27 15:06:56;;;;;;;0.50;0.50;;;;;;;;;;5055400;28;20067;-90
2022/12/27 15:09:30;;;;;;;1.42;0.32;;;;;;;;;;5054770;28;20049;-88
2022/12/27 15:12:05;;;;;;;1.17;0.70;;;;;;;;;;5054322;28;20071;-89
2022/12/27 15:14:44;;;;;;;0.40;0.40;;;;;;;;;;5055314;28;20053;-89
2022/12/27 15:17:18;;;;;;;0.20;0.20;;;;;;;;;;5053308;28;20091;-88
2022/12/27 15:20:06;;;;;;;1.83;0.68;;;;;;;;;;5053626;28;20053;-88
2022/12/27 15:22:42;;;;;;;2.33;0.65;;;;;;;;;;5044068;28;20096;-90
2022/12/27 15:25:20;;;;;;;0.90;0.50;;;;;;;;;;5049718;28;20442;-88
2022/12/27 15:27:53;;;;;;;0.90;0.43;;;;;;;;;;5053231;28;20065;-88
2022/12/27 15:30:24;;;;;;;0.63;0.50;;;;;;;;;;5050028;28;20057;-89
2022/12/27 15:32:56;;;;;;;0.90;0.60;;;;;;;;;;5050711;28;20045;-88
2022/12/27 15:35:30;;;;;;;0.50;0.30;;;;;;;;;;5054554;28;20100;-87
2022/12/27 15:38:14;;;;;;;1.92;0.57;;;;;;;;;;5048941;28;20129;-88
2022/12/27 15:41:11;;;;;;;0.20;0.20;;;;;;;;;;5051727;28;20073;-87
2022/12/27 15:43:50;;;;;;;0.20;0.20;;;;;;;;;;5052017;28;20056;-88
2022/12/27 15:46:24;;;;;;;0.25;0.25;;;;;;;;;;5054022;28;20048;-88
2022/12/27 15:49:20;;;;;;;0.30;0.28;;;;;;;;;;5051884;28;20060;-86
2022/12/27 15:51:52;;;;;;;3.50;0.75;;;;;;;;;;5012987;28;20462;-88
2022/12/27 15:54:43;;;;;;;0.32;0.32;;;;;;;;;;5049185;28;20461;-88
2022/12/27 15:57:49;;;;;;;0.10;0.10;;;;;;;;;;5051630;28;20484;-88
2022/12/27 16:00:26;;;;;;;0.75;0.75;;;;;;;;;;5043580;28;20053;-88
2022/12/27 16:03:02;;;;;;;0.20;0.20;;;;;;;;;;5052537;28;20156;-86
2022/12/27 16:05:50;;;;;;;0.28;0.28;;;;;;;;;;5050196;28;20052;-87
2022/12/27 16:08:24;;;;;;;0.28;0.28;;;;;;;;;;5049916;28;20044;-87
2022/12/27 16:10:53;;;;;;;0.20;0.20;;;;;;;;;;5050087;28;20083;-88
2022/12/27 16:13:40;;;;;;;1.10;0.82;;;;;;;;;;5051985;28;20080;-87
2022/12/27 16:16:25;;;;;;;0.30;0.30;;;;;;;;;;5053839;28;20121;-88
2022/12/27 16:19:10;;;;;;;0.45;0.43;;;;;;;;;;5045970;28;20072;-88
2022/12/27 16:21:42;;;;;;;0.20;0.20;;;;;;;;;;5053168;28;20120;-87
2022/12/27 16:24:16;;;;;;;0.20;0.20;;;;;;;;;;5051114;28;20472;-89
2022/12/27 16:26:52;;;;;;;0.52;0.52;;;;;;;;;;5053663;28;20045;-89
2022/12/27 16:29:24;;;;;;;0.10;0.10;;;;;;;;;;5049193;28;20049;-87
2022/12/27 16:32:12;;;;;;;0.30;0.30;;;;;;;;;;5052717;28;20057;-87
2022/12/27 16:34:41;;;;;;;1.15;0.43;;;;;;;;;;5053237;28;20559;-89
2022/12/27 16:37:21;;;;;;;0.30;0.30;;;;;;;;;;5055958;28;20057;-89
2022/12/27 16:39:57;;;;;;;0.30;0.30;;;;;;;;;;5051960;28;20042;-88
2022/12/27 16:42:34;;;;;;;0.20;0.20;;;;;;;;;;5051920;28;20448;-88
2022/12/27 16:45:24;;;;;;;0.30;0.30;;;;;;;;;;5050687;28;20048;-90
2022/12/27 16:48:08;;;;;;;0.60;0.50;;;;;;;;;;5051983;28;20052;-90
2022/12/27 16:50:53;;;;;;;0.40;0.40;;;;;;;;;;5030978;28;20060;-89
2022/12/27 16:53:36;;;;;;;0.20;0.20;;;;;;;;;;5051737;28;20049;-87
2022/12/27 16:56:13;;;;;;;0.25;0.25;;;;;;;;;;5051882;28;20075;-88
2022/12/27 16:58:42;;;;;;;0.55;0.30;;;;;;;;;;5041626;28;20119;-89
2022/12/27 17:01:26;;;;;;;0.20;0.20;;;;;;;;;;5041037;28;20045;-88
2022/12/27 17:03:56;;;;;;;0.28;0.22;;;;;;;;;;5022453;28;20076;-88
2022/12/27 17:06:55;;;;;;;0.20;0.20;;;;;;;;;;5024026;28;20053;-89